Time;durP1;ratioP1;P1;durP2;ratioP2;P2;SDS_P1;SDS_P2;PMS_P1;PMS_P2;Temp;Humidity;BMP_temperature;BMP_pressure;BME280_temperature;BME280_humidity;BME280_pressure;Samples;Min_cycle;Max_cycle;Signal;HPM_P1;HPM_P2
2023/12/24 00:01:32;;;;;;;;;;;;;;;16.49;47.08;101425.06;4098991;28;20313;-63
2023/12/24 00:03:34;;;;;;;;;;;;;;;16.46;47.01;101431.41;4098433;29;20407;-53
2023/12/24 00:05:35;;;;;;;;;;;;;;;16.43;47.37;101435.06;4099075;29;19926;-55
2023/12/24 00:07:37;;;;;;;;;;;;;;;16.41;47.44;101442.22;4098828;28;19945;-53
2023/12/24 00:09:38;;;;;;;;;;;;;;;16.39;47.24;101437.94;4098392;29;19922;-54
2023/12/24 00:11:40;;;;;;;;;;;;;;;16.37;47.21;101446.00;4098357;29;20298;-53
2023/12/24 00:13:42;;;;;;;;;;;;;;;16.36;47.27;101449.56;4098754;28;19938;-53
2023/12/24 00:15:44;;;;;;;;;;;;;;;16.35;47.61;101439.88;4099125;28;19922;-54
2023/12/24 00:17:46;;;;;;;;;;;;;;;16.32;47.59;101440.06;4097708;29;19973;-55
2023/12/24 00:19:48;;;;;;;;;;;;;;;16.34;47.65;101446.13;4098706;28;19923;-55
2023/12/24 00:21:50;;;;;;;;;;;;;;;16.33;47.33;101432.94;4098732;29;20008;-53
2023/12/24 00:23:52;;;;;;;;;;;;;;;16.33;47.53;101435.59;4098354;28;19923;-53
2023/12/24 00:25:58;;;;;;;;;;;;;;;16.36;47.57;101438.09;4086202;29;20436;-57
2023/12/24 00:28:05;;;;;;;;;;;;;;;16.39;47.24;101444.13;4089949;29;20387;-54
2023/12/24 00:30:12;;;;;;;;;;;;;;;16.36;47.30;101435.44;4098397;29;19966;-53
2023/12/24 00:32:14;;;;;;;;;;;;;;;16.35;47.31;101439.03;4098777;29;19926;-55
2023/12/24 00:34:16;;;;;;;;;;;;;;;16.36;47.57;101446.06;4097927;29;19922;-54
2023/12/24 00:36:17;;;;;;;;;;;;;;;16.36;47.69;101436.28;4098798;28;19930;-54
2023/12/24 00:38:24;;;;;;;;;;;;;;;16.34;47.63;101430.19;4100950;28;19946;-52
2023/12/24 00:40:25;;;;;;;;;;;;;;;16.34;47.65;101429.34;4098933;28;20304;-44
2023/12/24 00:42:27;;;;;;;;;;;;;;;16.40;47.48;101429.03;4099200;29;19926;-56
2023/12/24 00:44:29;;;;;;;;;;;;;;;16.36;47.35;101420.38;4101799;28;20005;-56
2023/12/24 00:46:30;;;;;;;;;;;;;;;16.35;47.13;101429.25;4102046;28;20017;-56
2023/12/24 00:48:32;;;;;;;;;;;;;;;16.34;47.45;101416.91;4101608;29;20009;-56
2023/12/24 00:50:33;;;;;;;;;;;;;;;16.34;47.34;101408.97;4101111;29;20600;-57
2023/12/24 00:52:36;;;;;;;;;;;;;;;16.34;47.51;101408.97;4102158;29;20409;-56
2023/12/24 00:54:37;;;;;;;;;;;;;;;16.33;47.49;101412.56;4101505;29;19962;-57
2023/12/24 00:56:39;;;;;;;;;;;;;;;16.32;47.39;101409.97;4101817;29;19930;-57
2023/12/24 00:58:41;;;;;;;;;;;;;;;16.32;47.52;101404.66;4102109;29;20339;-56
2023/12/24 01:00:42;;;;;;;;;;;;;;;16.32;47.60;101394.91;4102030;29;19965;-55
2023/12/24 01:02:44;;;;;;;;;;;;;;;16.32;47.64;101402.00;4102246;29;19927;-55
2023/12/24 01:04:45;;;;;;;;;;;;;;;16.32;47.30;101405.53;4102168;29;19954;-55
2023/12/24 01:06:47;;;;;;;;;;;;;;;16.33;47.48;101412.56;4102109;29;19929;-57
2023/12/24 01:08:48;;;;;;;;;;;;;;;16.33;47.48;101409.03;4101396;29;19929;-57
2023/12/24 01:10:50;;;;;;;;;;;;;;;16.33;47.62;101406.38;4101630;29;20021;-57
2023/12/24 01:12:54;;;;;;;;;;;;;;;16.29;47.46;101410.97;4101870;28;19922;-56
2023/12/24 01:14:56;;;;;;;;;;;;;;;16.28;47.55;101399.53;4099981;29;20407;-54
2023/12/24 01:16:59;;;;;;;;;;;;;;;16.29;47.89;101400.38;4101965;29;19923;-58
2023/12/24 01:19:00;;;;;;;;;;;;;;;16.31;47.92;101393.19;4101712;29;20444;-58
2023/12/24 01:21:02;;;;;;;;;;;;;;;16.33;47.30;101396.66;4093733;29;19930;-61
2023/12/24 01:23:04;;;;;;;;;;;;;;;16.33;47.31;101387.81;4094998;29;19973;-54
2023/12/24 01:25:05;;;;;;;;;;;;;;;16.31;47.53;101395.84;4099986;29;20370;-56
2023/12/24 01:27:07;;;;;;;;;;;;;;;16.28;47.71;101399.53;4092043;29;19929;-57
2023/12/24 01:29:08;;;;;;;;;;;;;;;16.26;47.49;101398.72;4085966;29;19997;-58
2023/12/24 01:31:10;;;;;;;;;;;;;;;16.25;47.40;101399.66;4086010;29;20046;-57
2023/12/24 01:33:12;;;;;;;;;;;;;;;16.24;47.69;101402.38;4085536;29;19923;-60
2023/12/24 01:35:13;;;;;;;;;;;;;;;16.20;47.91;101404.34;4078395;29;19934;-58
2023/12/24 01:37:15;;;;;;;;;;;;;;;16.21;47.90;101389.25;4101514;29;19937;-58
2023/12/24 01:39:19;;;;;;;;;;;;;;;16.19;47.71;101391.16;4101547;29;19927;-58
2023/12/24 01:41:20;;;;;;;;;;;;;;;16.18;47.77;101390.28;4101876;29;19926;-58
2023/12/24 01:43:22;;;;;;;;;;;;;;;16.10;47.98;101377.38;4101656;29;19933;-57
2023/12/24 01:45:23;;;;;;;;;;;;;;;16.18;47.92;101402.69;4101668;29;19922;-58
2023/12/24 01:47:25;;;;;;;;;;;;;;;16.17;47.86;101408.94;4084108;29;19923;-58
2023/12/24 01:49:27;;;;;;;;;;;;;;;16.15;47.88;101405.47;4084007;29;19922;-57
2023/12/24 01:51:30;;;;;;;;;;;;;;;16.13;47.65;101400.25;4101687;29;20381;-57
2023/12/24 01:53:32;;;;;;;;;;;;;;;16.12;47.83;101393.22;4101594;29;20363;-58
2023/12/24 01:55:34;;;;;;;;;;;;;;;16.10;47.99;101389.78;4101630;29;19957;-58
2023/12/24 01:57:36;;;;;;;;;;;;;;;16.10;47.70;101388.00;4084393;29;19923;-57
2023/12/24 01:59:37;;;;;;;;;;;;;;;16.08;47.99;101381.03;4101448;29;19966;-58
2023/12/24 02:01:39;;;;;;;;;;;;;;;16.07;48.12;101380.16;4101590;29;19923;-57
2023/12/24 02:03:40;;;;;;;;;;;;;;;16.04;48.00;101380.34;4101621;29;20404;-57
2023/12/24 02:05:45;;;;;;;;;;;;;;;16.02;48.22;101382.19;4101472;29;19945;-58
2023/12/24 02:07:47;;;;;;;;;;;;;;;16.01;48.03;101377.81;4101059;29;19926;-57
2023/12/24 02:09:48;;;;;;;;;;;;;;;15.99;48.03;101382.34;4101175;29;19944;-58
2023/12/24 02:11:50;;;;;;;;;;;;;;;15.99;47.81;101371.75;4101367;29;19922;-57
2023/12/24 02:13:52;;;;;;;;;;;;;;;15.97;48.18;101357.69;4101316;28;20009;-57
2023/12/24 02:15:56;;;;;;;;;;;;;;;15.99;48.15;101358.47;4101458;29;19922;-58
2023/12/24 02:17:59;;;;;;;;;;;;;;;15.96;47.76;101356.81;4101311;29;19922;-56
2023/12/24 02:20:01;;;;;;;;;;;;;;;15.93;48.11;101351.66;4100999;29;19926;-57
2023/12/24 02:22:03;;;;;;;;;;;;;;;15.92;47.94;101349.94;4101031;29;19929;-57
2023/12/24 02:24:04;;;;;;;;;;;;;;;15.92;48.15;101378.28;4101028;29;19922;-57
2023/12/24 02:26:14;;;;;;;;;;;;;;;15.93;48.25;101372.00;4101293;29;19922;-57
2023/12/24 02:28:21;;;;;;;;;;;;;;;15.91;48.17;101381.84;4101145;29;19927;-57
2023/12/24 02:30:26;;;;;;;;;;;;;;;15.90;48.16;101388.94;4101131;29;19923;-57
2023/12/24 02:32:29;;;;;;;;;;;;;;;15.90;47.84;101398.69;4101037;29;19961;-57
2023/12/24 02:34:31;;;;;;;;;;;;;;;15.88;47.97;101385.50;4100990;29;19934;-57
2023/12/24 02:36:33;;;;;;;;;;;;;;;15.88;48.15;101396.13;4100691;29;20005;-57
2023/12/24 02:38:35;;;;;;;;;;;;;;;15.89;48.20;101389.00;4100910;29;19977;-58
2023/12/24 02:40:37;;;;;;;;;;;;;;;15.87;47.95;101386.44;4101025;29;19927;-57
2023/12/24 02:42:38;;;;;;;;;;;;;;;15.86;48.22;101384.72;4100937;29;20306;-57
2023/12/24 02:44:40;;;;;;;;;;;;;;;15.83;48.28;101379.53;4100868;29;19969;-57
2023/12/24 02:46:42;;;;;;;;;;;;;;;15.84;48.18;101375.13;4100894;29;19922;-57
2023/12/24 02:48:44;;;;;;;;;;;;;;;15.83;47.82;101363.63;4100805;29;19926;-57
2023/12/24 02:50:45;;;;;;;;;;;;;;;15.84;47.96;101360.03;4100433;29;19923;-57
2023/12/24 02:52:47;;;;;;;;;;;;;;;15.82;47.92;101351.28;4100710;29;19929;-57
2023/12/24 02:54:48;;;;;;;;;;;;;;;15.80;48.40;101364.59;4100852;29;19922;-56
2023/12/24 02:56:50;;;;;;;;;;;;;;;15.80;48.26;101354.00;4100814;29;20304;-57
2023/12/24 02:58:51;;;;;;;;;;;;;;;15.79;48.13;101352.28;4100561;29;20024;-57
2023/12/24 03:00:53;;;;;;;;;;;;;;;15.80;48.38;101342.53;4099633;28;19922;-58
2023/12/24 03:02:54;;;;;;;;;;;;;;;15.78;48.33;101345.28;4083732;29;19922;-58
2023/12/24 03:04:56;;;;;;;;;;;;;;;15.79;48.34;101356.72;4100153;29;20384;-58
2023/12/24 03:06:58;;;;;;;;;;;;;;;15.78;48.27;101353.22;4100096;29;19929;-57
2023/12/24 03:08:59;;;;;;;;;;;;;;;15.78;48.13;101344.41;4100112;29;19922;-58
2023/12/24 03:11:01;;;;;;;;;;;;;;;15.77;47.99;101347.97;4100610;29;20459;-58
2023/12/24 03:13:03;;;;;;;;;;;;;;;15.74;48.21;101341.03;4100402;28;20397;-57
2023/12/24 03:15:05;;;;;;;;;;;;;;;15.76;48.40;101346.25;4100561;29;20348;-57
2023/12/24 03:17:06;;;;;;;;;;;;;;;15.75;48.44;101342.75;4100286;29;19961;-57
2023/12/24 03:19:08;;;;;;;;;;;;;;;15.75;48.42;101341.91;4083097;29;19923;-58
2023/12/24 03:21:10;;;;;;;;;;;;;;;15.76;48.09;101355.09;4100319;29;19922;-57
2023/12/24 03:23:11;;;;;;;;;;;;;;;15.75;48.41;101340.09;4100148;29;19941;-57
2023/12/24 03:25:13;;;;;;;;;;;;;;;15.75;48.34;101329.50;4100290;29;19926;-58
2023/12/24 03:27:15;;;;;;;;;;;;;;;15.75;48.05;101329.50;4100537;29;19953;-58
2023/12/24 03:29:16;;;;;;;;;;;;;;;15.73;48.41;101326.03;4100448;29;20373;-58
2023/12/24 03:31:18;;;;;;;;;;;;;;;15.75;48.35;101315.38;4100101;29;19922;-58
2023/12/24 03:33:19;;;;;;;;;;;;;;;15.75;48.32;101320.69;4099960;29;19958;-58
2023/12/24 03:35:21;;;;;;;;;;;;;;;15.72;48.35;101305.75;4100258;29;19927;-58
2023/12/24 03:37:23;;;;;;;;;;;;;;;15.72;48.42;101326.13;4099955;29;19922;-57
2023/12/24 03:39:24;;;;;;;;;;;;;;;15.71;48.40;101314.69;4100214;29;19922;-57
2023/12/24 03:41:26;;;;;;;;;;;;;;;15.70;48.47;101314.72;4100145;29;19922;-58
2023/12/24 03:43:28;;;;;;;;;;;;;;;15.70;48.31;101315.59;4099966;29;19969;-58
2023/12/24 03:45:32;;;;;;;;;;;;;;;15.68;48.27;101312.16;4100012;29;19929;-58
2023/12/24 03:47:34;;;;;;;;;;;;;;;15.68;48.46;101317.47;4099510;29;19956;-58
2023/12/24 03:49:36;;;;;;;;;;;;;;;15.69;48.27;101323.59;4099754;29;20017;-57
2023/12/24 03:51:37;;;;;;;;;;;;;;;15.67;48.28;101317.53;4100063;29;19922;-57
2023/12/24 03:53:39;;;;;;;;;;;;;;;15.67;48.50;101307.78;4099963;29;19922;-57
2023/12/24 03:55:40;;;;;;;;;;;;;;;15.65;48.63;101299.06;4099890;29;19945;-58
2023/12/24 03:57:42;;;;;;;;;;;;;;;15.65;48.38;101297.25;4099912;29;19933;-57
2023/12/24 03:59:43;;;;;;;;;;;;;;;15.64;48.53;101306.13;4082686;29;19962;-58
2023/12/24 04:01:45;;;;;;;;;;;;;;;15.64;48.58;101303.50;4099660;29;19923;-58
2023/12/24 04:03:46;;;;;;;;;;;;;;;15.64;48.44;101308.78;4099646;29;19923;-58
2023/12/24 04:05:48;;;;;;;;;;;;;;;15.65;48.69;101312.31;4099798;29;19926;-58
2023/12/24 04:07:50;;;;;;;;;;;;;;;15.64;48.43;101292.03;4099727;29;19933;-58
2023/12/24 04:09:51;;;;;;;;;;;;;;;15.62;48.20;101297.38;4099748;29;19994;-56
2023/12/24 04:11:53;;;;;;;;;;;;;;;15.61;48.33;101300.13;4099528;29;19922;-57
2023/12/24 04:13:54;;;;;;;;;;;;;;;15.60;48.50;101286.00;4099560;28;19926;-57
2023/12/24 04:15:56;;;;;;;;;;;;;;;15.61;48.42;101284.22;4099526;29;19926;-57
2023/12/24 04:17:57;;;;;;;;;;;;;;;15.60;48.31;101285.13;4099314;29;20428;-58
2023/12/24 04:20:05;;;;;;;;;;;;;;;15.60;48.70;101258.63;4099446;29;19926;-58
2023/12/24 04:22:07;;;;;;;;;;;;;;;15.60;48.55;101258.63;4099767;29;19927;-57
2023/12/24 04:24:09;;;;;;;;;;;;;;;15.59;48.27;101255.13;4082510;29;19929;-56
2023/12/24 04:26:11;;;;;;;;;;;;;;;15.58;48.50;101256.06;4099861;29;19922;-57
2023/12/24 04:28:12;;;;;;;;;;;;;;;15.57;48.63;101253.50;4099440;29;20016;-58
2023/12/24 04:30:14;;;;;;;;;;;;;;;15.55;48.27;101248.22;4099601;29;19930;-58
2023/12/24 04:32:17;;;;;;;;;;;;;;;15.55;48.53;101247.38;4082244;29;19923;-58
2023/12/24 04:34:18;;;;;;;;;;;;;;;15.54;48.65;101257.16;4099532;29;19923;-58
2023/12/24 04:36:20;;;;;;;;;;;;;;;15.55;48.50;101248.22;4082533;29;20349;-57
2023/12/24 04:38:21;;;;;;;;;;;;;;;15.54;48.43;101243.91;4099290;29;20016;-57
2023/12/24 04:40:23;;;;;;;;;;;;;;;15.54;48.55;101246.53;4099511;29;20331;-58
2023/12/24 04:42:25;;;;;;;;;;;;;;;15.55;48.42;101244.75;4099567;29;20297;-57
2023/12/24 04:44:26;;;;;;;;;;;;;;;15.55;48.51;101242.09;4099531;29;19922;-57
2023/12/24 04:46:28;;;;;;;;;;;;;;;15.53;48.50;101233.34;4099132;29;19929;-57
2023/12/24 04:48:29;;;;;;;;;;;;;;;15.53;48.42;101239.53;4099581;29;20444;-57
2023/12/24 04:50:35;;;;;;;;;;;;;;;15.54;48.55;101241.25;4099155;29;19934;-57
2023/12/24 04:52:37;;;;;;;;;;;;;;;15.53;48.36;101236.88;4099389;29;19949;-58
2023/12/24 04:54:39;;;;;;;;;;;;;;;15.53;48.63;101243.94;4099204;29;19950;-57
2023/12/24 04:56:41;;;;;;;;;;;;;;;15.53;48.58;101242.16;4099260;29;20017;-57
2023/12/24 04:58:42;;;;;;;;;;;;;;;15.52;48.59;101231.63;4099472;29;19933;-57
2023/12/24 05:00:44;;;;;;;;;;;;;;;15.53;48.27;101251.91;4099019;29;19922;-56
2023/12/24 05:02:46;;;;;;;;;;;;;;;15.53;48.48;101241.28;4099406;29;20016;-57
2023/12/24 05:04:49;;;;;;;;;;;;;;;15.52;48.64;101242.22;4099315;29;19928;-57
2023/12/24 05:06:50;;;;;;;;;;;;;;;15.52;48.60;101247.53;4099407;29;19922;-57
2023/12/24 05:08:51;;;;;;;;;;;;;;;15.51;48.28;101243.19;4099175;29;19950;-57
2023/12/24 05:10:53;;;;;;;;;;;;;;;15.48;48.63;101239.72;4099545;29;19934;-57
2023/12/24 05:12:55;;;;;;;;;;;;;;;15.49;48.34;101245.88;4099283;28;19929;-57
2023/12/24 05:14:59;;;;;;;;;;;;;;;15.48;48.60;101253.00;4098855;29;19926;-57
2023/12/24 05:17:02;;;;;;;;;;;;;;;15.49;48.38;101256.47;4099287;29;19922;-58
2023/12/24 05:19:03;;;;;;;;;;;;;;;15.49;48.36;101267.09;4099283;29;19926;-57
2023/12/24 05:21:05;;;;;;;;;;;;;;;15.48;48.53;101274.19;4099259;29;19922;-57
2023/12/24 05:23:06;;;;;;;;;;;;;;;15.48;48.31;101260.06;4099281;28;19972;-57
2023/12/24 05:25:08;;;;;;;;;;;;;;;15.48;48.24;101258.28;4102119;29;19922;-57
2023/12/24 05:27:10;;;;;;;;;;;;;;;15.49;48.39;101259.13;4101834;29;20029;-57
2023/12/24 05:29:11;;;;;;;;;;;;;;;15.48;48.53;101255.63;4101627;29;19922;-57
2023/12/24 05:31:13;;;;;;;;;;;;;;;15.47;48.26;101245.97;4101983;29;19927;-57
2023/12/24 05:33:14;;;;;;;;;;;;;;;15.47;48.56;101239.81;4101814;29;20364;-58
2023/12/24 05:35:16;;;;;;;;;;;;;;;15.47;48.39;101234.50;4101998;29;19922;-57
2023/12/24 05:37:18;;;;;;;;;;;;;;;15.46;48.22;101231.00;4102032;29;19922;-57
2023/12/24 05:39:19;;;;;;;;;;;;;;;15.47;48.29;101230.06;4101850;29;20006;-57
2023/12/24 05:41:21;;;;;;;;;;;;;;;15.46;48.50;101216.88;4101895;29;20372;-57
2023/12/24 05:43:24;;;;;;;;;;;;;;;15.46;48.45;101212.44;4084794;29;19929;-57
2023/12/24 05:45:26;;;;;;;;;;;;;;;15.47;48.48;101205.34;4101371;29;19929;-57
2023/12/24 05:47:27;;;;;;;;;;;;;;;15.47;48.53;101205.34;4101792;29;19922;-58
2023/12/24 05:49:29;;;;;;;;;;;;;;;15.45;48.22;101191.31;4101728;29;20486;-57
2023/12/24 05:51:31;;;;;;;;;;;;;;;15.46;48.21;101195.69;4101843;29;20353;-57
2023/12/24 05:53:33;;;;;;;;;;;;;;;15.46;48.15;101201.81;4101481;29;19989;-57
2023/12/24 05:55:34;;;;;;;;;;;;;;;15.46;48.46;101185.09;4101740;29;19936;-57
2023/12/24 05:57:36;;;;;;;;;;;;;;;15.44;48.41;101182.50;4101486;29;20014;-57
2023/12/24 05:59:37;;;;;;;;;;;;;;;15.44;48.47;101192.25;4101237;29;20050;-58
2023/12/24 06:01:39;;;;;;;;;;;;;;;15.44;48.27;101171.03;4101297;29;19929;-57
2023/12/24 06:03:41;;;;;;;;;;;;;;;15.45;48.53;101178.91;4084543;29;20017;-57
2023/12/24 06:05:43;;;;;;;;;;;;;;;15.44;48.50;101173.69;4084598;29;19986;-57
2023/12/24 06:07:44;;;;;;;;;;;;;;;15.44;48.41;101174.56;4101288;29;19927;-58
2023/12/24 06:09:46;;;;;;;;;;;;;;;15.44;48.27;101182.50;4101216;29;19922;-58
2023/12/24 06:11:47;;;;;;;;;;;;;;;15.44;48.55;101182.50;4101426;29;20108;-59
2023/12/24 06:13:49;;;;;;;;;;;;;;;15.43;48.28;101183.44;4101005;28;19929;-57
2023/12/24 06:15:55;;;;;;;;;;;;;;;15.43;48.60;101182.56;4101367;29;20341;-59
2023/12/24 06:17:57;;;;;;;;;;;;;;;15.42;48.62;101186.13;4101311;29;20412;-56
2023/12/24 06:19:59;;;;;;;;;;;;;;;15.41;48.57;101184.44;4101202;29;19929;-58
2023/12/24 06:22:01;;;;;;;;;;;;;;;15.41;48.70;101195.91;4101345;29;20025;-56
2023/12/24 06:24:07;;;;;;;;;;;;;;;15.41;48.41;101203.00;4084965;29;20440;-58
2023/12/24 06:26:10;;;;;;;;;;;;;;;15.42;48.35;101199.41;4101161;29;19922;-56
2023/12/24 06:28:11;;;;;;;;;;;;;;;15.42;48.70;101197.63;4100661;29;19922;-57
2023/12/24 06:30:13;;;;;;;;;;;;;;;15.43;48.56;101196.69;4084234;29;19924;-58
2023/12/24 06:32:20;;;;;;;;;;;;;;;15.43;48.14;101188.75;4101065;29;19929;-58
2023/12/24 06:34:27;;;;;;;;;;;;;;;15.45;48.56;101180.72;4100961;28;19977;-58
2023/12/24 06:36:28;;;;;;;;;;;;;;;15.44;48.56;101187.81;4101178;29;19922;-59
2023/12/24 06:38:30;;;;;;;;;;;;;;;15.43;48.09;101183.44;4100973;29;20008;-59
2023/12/24 06:40:31;;;;;;;;;;;;;;;15.44;48.51;101178.97;4100954;29;20300;-58
2023/12/24 06:42:33;;;;;;;;;;;;;;;15.44;48.40;101174.56;4100701;29;20302;-56
2023/12/24 06:44:35;;;;;;;;;;;;;;;15.43;48.53;101172.84;4100961;29;19931;-59
2023/12/24 06:46:36;;;;;;;;;;;;;;;15.44;48.35;101182.50;4100905;29;19922;-58
2023/12/24 06:48:39;;;;;;;;;;;;;;;15.44;48.16;101186.94;4100823;29;19968;-59
2023/12/24 06:50:41;;;;;;;;;;;;;;;15.43;48.41;101195.81;4100816;29;19993;-58
2023/12/24 06:52:47;;;;;;;;;;;;;;;15.43;48.39;101177.25;4100932;29;19923;-59
2023/12/24 06:54:49;;;;;;;;;;;;;;;15.43;48.42;101182.56;4100846;29;20305;-59
2023/12/24 06:56:50;;;;;;;;;;;;;;;15.41;48.59;101180.00;4100340;29;19923;-59
2023/12/24 06:58:52;;;;;;;;;;;;;;;15.42;48.70;101186.13;4100693;29;20001;-58
2023/12/24 07:00:54;;;;;;;;;;;;;;;15.43;48.56;101183.44;4100535;29;19922;-59
2023/12/24 07:02:55;;;;;;;;;;;;;;;15.43;48.57;101195.81;4100783;29;19926;-59
2023/12/24 07:04:57;;;;;;;;;;;;;;;15.41;48.70;101193.25;4100515;29;19969;-58
2023/12/24 07:06:58;;;;;;;;;;;;;;;15.42;48.22;101186.13;4100643;29;19929;-57
2023/12/24 07:09:00;;;;;;;;;;;;;;;15.41;48.67;101180.00;4083231;29;19923;-59
2023/12/24 07:11:01;;;;;;;;;;;;;;;15.41;48.65;101185.28;4100253;29;19928;-59
2023/12/24 07:13:03;;;;;;;;;;;;;;;15.42;48.45;101188.78;4100487;28;19950;-59
2023/12/24 07:15:05;;;;;;;;;;;;;;;15.41;48.58;101187.94;4100475;29;19957;-59
2023/12/24 07:17:11;;;;;;;;;;;;;;;15.41;48.28;101189.75;4100326;29;20298;-59
2023/12/24 07:19:13;;;;;;;;;;;;;;;15.40;48.69;101185.38;4100439;29;20001;-58
2023/12/24 07:21:15;;;;;;;;;;;;;;;15.39;48.43;101192.44;4100363;29;19937;-59
2023/12/24 07:23:16;;;;;;;;;;;;;;;15.41;48.57;101190.59;4100198;29;19930;-59
2023/12/24 07:25:18;;;;;;;;;;;;;;;15.40;48.62;101178.28;4099748;29;19922;-59
2023/12/24 07:27:21;;;;;;;;;;;;;;;15.40;48.46;101186.22;4100411;29;19923;-59
2023/12/24 07:29:27;;;;;;;;;;;;;;;15.39;48.51;101181.00;4100211;29;19999;-58
2023/12/24 07:31:29;;;;;;;;;;;;;;;15.38;48.57;101181.94;4100348;29;19922;-58
2023/12/24 07:33:31;;;;;;;;;;;;;;;15.40;48.52;101182.72;4100115;29;19961;-58
2023/12/24 07:35:32;;;;;;;;;;;;;;;15.39;48.37;101181.84;4100162;29;19977;-58
2023/12/24 07:37:34;;;;;;;;;;;;;;;15.38;48.57;101179.28;4100036;29;19926;-58
2023/12/24 07:39:35;;;;;;;;;;;;;;;15.38;48.38;101182.78;4099683;29;19926;-59
2023/12/24 07:41:37;;;;;;;;;;;;;;;15.38;48.77;101182.78;4100005;29;19945;-59
2023/12/24 07:43:38;;;;;;;;;;;;;;;15.38;48.59;101180.13;4100191;29;20155;-59
2023/12/24 07:45:40;;;;;;;;;;;;;;;15.39;48.71;101181.00;4099791;29;19970;-59
2023/12/24 07:47:45;;;;;;;;;;;;;;;15.39;48.75;101181.00;4099838;29;19923;-58
2023/12/24 07:49:47;;;;;;;;;;;;;;;15.37;48.86;101175.78;4099806;29;19977;-57
2023/12/24 07:51:48;;;;;;;;;;;;;;;15.37;48.85;101169.63;4100146;29;20413;-58
2023/12/24 07:53:50;;;;;;;;;;;;;;;15.38;48.89;101172.19;4100105;29;19946;-58
2023/12/24 07:55:51;;;;;;;;;;;;;;;15.37;48.67;101180.22;4099738;29;19930;-59
2023/12/24 07:57:53;;;;;;;;;;;;;;;15.36;48.90;101175.84;4099923;29;19961;-59
2023/12/24 07:59:54;;;;;;;;;;;;;;;15.37;48.72;101175.78;4099944;29;19922;-58
2023/12/24 08:01:56;;;;;;;;;;;;;;;15.37;48.75;101180.22;4099931;29;19926;-59
2023/12/24 08:04:02;;;;;;;;;;;;;;;15.37;48.66;101169.63;4083296;29;19933;-59
2023/12/24 08:06:04;;;;;;;;;;;;;;;15.35;48.87;101175.00;4099774;29;19953;-58
2023/12/24 08:08:05;;;;;;;;;;;;;;;15.36;48.93;101189.09;4082770;29;19926;-58
2023/12/24 08:10:07;;;;;;;;;;;;;;;15.33;48.93;101168.91;4099302;29;19922;-58
2023/12/24 08:12:10;;;;;;;;;;;;;;;15.34;48.76;101181.22;4099686;29;20361;-58
2023/12/24 08:14:12;;;;;;;;;;;;;;;15.33;49.16;101188.34;4099426;28;20068;-58
2023/12/24 08:16:18;;;;;;;;;;;;;;;15.34;49.03;101189.16;4099620;29;19923;-57
2023/12/24 08:18:25;;;;;;;;;;;;;;;15.34;49.06;101194.47;4099743;29;19922;-57
2023/12/24 08:20:26;;;;;;;;;;;;;;;15.34;48.87;101202.44;4099728;29;20025;-59
2023/12/24 08:22:28;;;;;;;;;;;;;;;15.35;48.90;101182.94;4099582;29;19930;-58
2023/12/24 08:24:30;;;;;;;;;;;;;;;15.32;48.97;101193.69;4099239;29;19965;-58
2023/12/24 08:26:31;;;;;;;;;;;;;;;15.34;49.04;101194.47;4099659;29;19941;-58
2023/12/24 08:28:33;;;;;;;;;;;;;;;15.34;49.11;101205.91;4099727;29;19930;-58
2023/12/24 08:30:40;;;;;;;;;;;;;;;15.35;49.14;101198.84;4099731;29;19922;-58
2023/12/24 08:32:41;;;;;;;;;;;;;;;15.33;48.88;101204.22;4099691;29;19923;-58
2023/12/24 08:34:43;;;;;;;;;;;;;;;15.34;49.23;101211.22;4099412;29;19949;-58
2023/12/24 08:36:44;;;;;;;;;;;;;;;15.34;48.96;101195.31;4099674;29;20392;-58
2023/12/24 08:38:46;;;;;;;;;;;;;;;15.34;49.08;101203.28;4099149;29;19926;-58
2023/12/24 08:40:47;;;;;;;;;;;;;;;15.35;48.89;101206.78;4099569;29;20009;-58
2023/12/24 08:42:49;;;;;;;;;;;;;;;15.34;49.07;101203.28;4099864;29;19926;-58
2023/12/24 08:44:51;;;;;;;;;;;;;;;15.36;48.92;101208.53;4099476;29;20384;-57
2023/12/24 08:46:52;;;;;;;;;;;;;;;15.36;48.94;101216.47;4099488;29;19930;-58
2023/12/24 08:48:54;;;;;;;;;;;;;;;15.34;48.96;101200.63;4082558;29;20021;-59
2023/12/24 08:50:56;;;;;;;;;;;;;;;15.36;48.73;101211.16;4099486;29;20385;-58
2023/12/24 08:52:57;;;;;;;;;;;;;;;15.35;48.96;101193.53;4098840;29;19923;-58
2023/12/24 08:54:59;;;;;;;;;;;;;;;15.34;48.97;101208.56;4099506;29;19941;-59
2023/12/24 08:57:00;;;;;;;;;;;;;;;15.36;49.02;101210.28;4099542;29;19929;-58
2023/12/24 08:59:03;;;;;;;;;;;;;;;15.35;49.01;101201.50;4100799;28;20037;-59
2023/12/24 09:01:05;;;;;;;;;;;;;;;15.36;48.88;101199.69;4102587;29;20353;-58
2023/12/24 09:03:07;;;;;;;;;;;;;;;15.34;48.87;101199.78;4102336;29;20408;-59
2023/12/24 09:05:09;;;;;;;;;;;;;;;15.36;48.75;101202.34;4102317;29;20394;-58
2023/12/24 09:07:10;;;;;;;;;;;;;;;15.34;49.05;101207.72;4102161;29;19922;-58
2023/12/24 09:09:12;;;;;;;;;;;;;;;15.34;48.96;101213.88;4102121;29;20368;-58
2023/12/24 09:11:14;;;;;;;;;;;;;;;15.34;49.07;101211.22;4102444;29;19922;-57
2023/12/24 09:13:15;;;;;;;;;;;;;;;15.36;48.96;101215.59;4085145;29;19973;-58
2023/12/24 09:15:19;;;;;;;;;;;;;;;15.33;48.83;101206.88;4085391;29;19922;-59
2023/12/24 09:17:21;;;;;;;;;;;;;;;15.34;48.96;101211.22;4102209;29;20373;-58
2023/12/24 09:19:22;;;;;;;;;;;;;;;15.33;49.09;101209.53;4101382;29;19929;-58
2023/12/24 09:21:24;;;;;;;;;;;;;;;15.36;49.03;101213.81;4101670;29;19922;-58
2023/12/24 09:23:25;;;;;;;;;;;;;;;15.37;48.85;101214.66;4102177;29;19923;-58
2023/12/24 09:25:27;;;;;;;;;;;;;;;15.37;48.97;101214.66;4102057;29;20458;-58
2023/12/24 09:27:28;;;;;;;;;;;;;;;15.37;48.66;101223.50;4102114;29;20295;-58
2023/12/24 09:29:30;;;;;;;;;;;;;;;15.37;48.88;101222.63;4101847;29;19923;-58
2023/12/24 09:31:32;;;;;;;;;;;;;;;15.35;48.81;101209.44;4102123;29;20354;-58
2023/12/24 09:33:33;;;;;;;;;;;;;;;15.34;48.81;101216.53;4101899;29;19954;-57
2023/12/24 09:35:35;;;;;;;;;;;;;;;15.36;48.75;101220.91;4101486;29;19937;-58
2023/12/24 09:37:42;;;;;;;;;;;;;;;15.35;49.09;101209.44;4085587;29;19922;-59
2023/12/24 09:39:44;;;;;;;;;;;;;;;15.34;49.08;101208.56;4101965;29;19922;-58
2023/12/24 09:41:46;;;;;;;;;;;;;;;15.36;48.98;101212.94;4101874;29;19969;-58
2023/12/24 09:43:47;;;;;;;;;;;;;;;15.36;48.56;101210.28;4101680;29;19972;-58
2023/12/24 09:45:49;;;;;;;;;;;;;;;15.37;48.95;101215.53;4101645;29;19923;-58
2023/12/24 09:47:50;;;;;;;;;;;;;;;15.38;48.93;101211.09;4101745;29;19922;-58
2023/12/24 09:49:52;;;;;;;;;;;;;;;15.38;48.95;101219.88;4101615;29;19929;-58
2023/12/24 09:51:54;;;;;;;;;;;;;;;15.38;48.80;101213.75;4101390;29;20297;-58
2023/12/24 09:53:56;;;;;;;;;;;;;;;15.39;48.98;101204.84;4101512;29;19926;-58
2023/12/24 09:55:58;;;;;;;;;;;;;;;15.38;48.86;101214.59;4101542;29;19964;-58
2023/12/24 09:57:59;;;;;;;;;;;;;;;15.38;48.75;101214.59;4084333;29;19922;-58
2023/12/24 10:00:01;;;;;;;;;;;;;;;15.38;48.73;101214.59;4101387;29;19929;-58
2023/12/24 10:02:03;;;;;;;;;;;;;;;15.39;48.94;101211.00;4084498;29;20306;-58
2023/12/24 10:04:09;;;;;;;;;;;;;;;15.39;48.95;101218.09;4101438;29;20404;-58
2023/12/24 10:06:11;;;;;;;;;;;;;;;15.40;48.93;101217.19;4101256;29;19922;-58
2023/12/24 10:08:16;;;;;;;;;;;;;;;15.40;48.91;101215.38;4101391;29;19923;-58
2023/12/24 10:10:28;;;;;;;;;;;;;;;15.39;48.98;101216.31;4100706;28;19926;-57
2023/12/24 10:12:29;;;;;;;;;;;;;;;15.41;48.69;101216.25;4101012;28;20014;-58
2023/12/24 10:14:31;;;;;;;;;;;;;;;15.41;48.93;101214.44;4101254;29;19933;-57
2023/12/24 10:16:41;;;;;;;;;;;;;;;15.41;48.92;101211.81;4101257;29;19929;-57
2023/12/24 10:18:49;;;;;;;;;;;;;;;15.39;48.78;101211.00;4101042;29;19929;-57
2023/12/24 10:21:02;;;;;;;;;;;;;;;15.39;48.71;101211.00;4100906;29;19961;-59
2023/12/24 10:23:06;;;;;;;;;;;;;;;15.40;48.83;101212.72;4101142;29;19922;-59
2023/12/24 10:25:09;;;;;;;;;;;;;;;15.41;49.12;101208.31;4101187;29;19933;-59
2023/12/24 10:27:11;;;;;;;;;;;;;;;15.42;48.91;101200.28;4101115;29;19923;-58